createdAt,value
2022-11-20T16:14:30.500Z,1.27
2022-11-20T16:18:32.560Z,1.24
2022-11-20T16:22:33.822Z,1.23
2022-11-20T16:26:35.361Z,1.22
2022-11-20T16:30:36.979Z,1.21
2022-11-20T16:34:38.261Z,1.20
2022-11-20T16:38:39.939Z,1.18
2022-11-20T16:42:41.222Z,1.13
2022-11-20T16:46:42.586Z,1.14
2022-11-20T16:50:45.434Z,1.10
2022-11-20T16:54:46.801Z,1.08
2022-11-20T16:58:49.575Z,1.04
2022-11-20T17:02:50.896Z,1.00
2022-11-20T17:06:52.254Z,0.96
2022-11-20T17:10:53.519Z,0.92
2022-11-20T17:14:54.804Z,0.86
2022-11-20T17:19:01.304Z,0.81
2022-11-20T17:23:04.309Z,0.71
2022-11-20T17:27:05.592Z,0.62
2022-11-20T17:31:11.044Z,0.57
2022-11-20T17:35:12.415Z,-141.60
2022-11-20T17:39:14.288Z,0.57
2022-11-20T17:43:15.648Z,0.30
2022-11-20T17:47:16.960Z,0.19
2022-11-20T17:51:19.484Z,0.08
2022-11-20T17:55:20.785Z,-141.60
2022-11-20T17:59:22.112Z,-141.60
2022-11-20T18:03:24.662Z,-141.60
2022-11-20T18:07:26.052Z,-141.60
2022-11-20T18:11:28.748Z,-141.60
2022-11-20T18:19:41.125Z,-0.40
2022-11-20T18:23:46.088Z,-0.48
2022-11-20T18:27:47.437Z,-0.51
2022-11-20T18:31:48.746Z,-0.60
2022-11-20T18:35:50.038Z,-0.67
2022-11-20T18:39:51.565Z,-0.76
2022-11-20T18:44:11.418Z,-0.85
2022-11-20T18:48:12.723Z,-0.91
2022-11-20T18:52:14.162Z,-0.94
2022-11-20T18:56:15.487Z,-1.01
2022-11-20T19:00:17.808Z,-1.02
2022-11-20T19:04:19.175Z,-1.00
2022-11-20T19:08:40.184Z,-0.94
2022-11-20T19:17:44.899Z,-0.83
2022-11-20T19:21:46.278Z,-0.79
2022-11-20T19:25:47.725Z,-0.71
2022-11-20T19:29:49.448Z,-0.65
2022-11-20T19:33:54.908Z,-0.58
2022-11-20T19:37:57.012Z,-0.52
2022-11-20T19:42:00.400Z,-0.47
2022-11-20T19:46:02.207Z,-0.42
2022-11-20T19:50:03.721Z,-0.40
2022-11-20T19:54:05.487Z,-0.38
2022-11-20T19:58:06.851Z,-0.37
2022-11-20T20:02:10.543Z,-141.60
2022-11-20T20:06:14.303Z,-141.60
2022-11-20T20:10:17.818Z,-141.60
2022-11-20T20:14:19.290Z,-141.60
2022-11-20T20:18:20.573Z,-141.60
2022-11-20T20:22:21.956Z,-141.60
2022-11-20T20:26:23.997Z,-141.60
2022-11-20T20:30:25.303Z,-141.60
2022-11-20T20:34:29.690Z,-141.60
2022-11-20T20:38:31.082Z,-141.60
2022-11-20T20:42:32.992Z,-141.60
2022-11-20T20:51:31.398Z,-141.60
2022-11-20T20:55:47.661Z,-141.60
2022-11-20T20:59:55.586Z,-141.60
2022-11-20T21:03:56.991Z,-141.60
2022-11-20T21:08:17.186Z,-141.60
2022-11-20T21:12:18.500Z,-141.60
2022-11-20T21:16:21.034Z,-141.60
2022-11-20T21:25:07.007Z,-141.60
2022-11-20T21:29:08.456Z,-141.60
2022-11-20T21:33:09.823Z,-141.60
2022-11-20T21:37:11.538Z,-141.60
2022-11-20T21:41:13.290Z,-141.60
2022-11-20T21:45:14.638Z,-141.60
2022-11-20T21:49:17.552Z,-141.60
2022-11-20T21:53:18.940Z,-141.60
2022-11-20T21:57:20.293Z,-141.60
2022-11-20T22:01:25.672Z,-141.60
2022-11-20T22:05:27.007Z,-141.60
2022-11-20T22:09:28.293Z,-141.60
2022-11-20T22:13:48.516Z,-141.60
2022-11-20T22:18:08.416Z,-141.60
2022-11-20T22:22:09.705Z,-141.60
2022-11-20T22:26:12.311Z,-141.60
2022-11-20T22:30:13.670Z,-141.60
2022-11-20T22:34:14.994Z,-141.60
2022-11-20T22:38:16.299Z,-141.60
2022-11-20T22:42:17.582Z,-141.60
2022-11-20T22:46:19.130Z,-141.60
2022-11-20T22:50:20.421Z,-141.60
2022-11-20T22:54:21.849Z,-141.60
2022-11-20T22:58:23.354Z,-141.60
2022-11-20T23:02:24.647Z,-141.60
2022-11-20T23:06:26.106Z,-141.60
2022-11-20T23:10:27.401Z,-141.60
2022-11-20T23:14:29.223Z,-141.60
2022-11-20T23:18:30.960Z,-141.60
2022-11-20T23:22:32.373Z,-141.60
2022-11-20T23:26:35.066Z,-141.60
2022-11-20T23:30:36.523Z,-141.60
2022-11-20T23:34:37.978Z,-141.60
2022-11-20T23:38:39.666Z,-141.60
2022-11-20T23:43:00.918Z,-141.60
2022-11-20T23:47:02.197Z,-141.60
2022-11-20T23:51:04.173Z,-141.60
2022-11-20T23:55:08.393Z,-141.60
2022-11-20T23:59:09.837Z,-141.60
